createdAt,value
2018-09-28T00:01:06.555Z,82.90
2018-09-28T00:03:34.574Z,82.90
2018-09-28T00:06:03.486Z,82.70
2018-09-28T00:08:31.554Z,82.20
2018-09-28T00:10:59.702Z,82.10
2018-09-28T00:13:27.713Z,82.00
2018-09-28T00:15:55.751Z,82.00
2018-09-28T00:18:23.876Z,82.20
2018-09-28T00:20:52.696Z,82.20
2018-09-28T00:23:20.711Z,82.40
2018-09-28T00:25:48.883Z,82.60
2018-09-28T00:28:16.949Z,82.70
2018-09-28T00:30:44.990Z,82.80
2018-09-28T00:33:13.070Z,83.00
2018-09-28T00:35:41.788Z,82.90
2018-09-28T00:38:09.822Z,83.20
2018-09-28T00:40:37.907Z,82.90
2018-09-28T00:43:06.409Z,83.10
2018-09-28T00:45:34.463Z,83.10
2018-09-28T00:48:02.486Z,83.20
2018-09-28T00:50:30.830Z,83.20
2018-09-28T00:52:58.842Z,83.10
2018-09-28T00:55:26.857Z,83.40
2018-09-28T00:57:54.928Z,83.10
2018-09-28T01:00:23.054Z,83.10
2018-09-28T01:02:51.059Z,83.20
2018-09-28T01:05:19.086Z,82.90
2018-09-28T01:07:47.136Z,82.80
2018-09-28T01:10:15.323Z,82.70
2018-09-28T01:12:43.393Z,82.30
2018-09-28T01:15:11.422Z,82.20
2018-09-28T01:17:39.417Z,82.10
2018-09-28T01:20:07.458Z,82.10
2018-09-28T01:22:35.626Z,81.20
2018-09-28T01:25:03.804Z,81.00
2018-09-28T01:27:32.190Z,81.70
2018-09-28T01:30:00.354Z,80.90
2018-09-28T01:32:28.373Z,80.90
2018-09-28T01:34:56.679Z,80.90
2018-09-28T01:37:24.771Z,81.10
2018-09-28T01:39:52.807Z,80.90
2018-09-28T01:42:21.326Z,81.30
2018-09-28T01:44:49.588Z,80.90
2018-09-28T01:47:17.593Z,80.90
2018-09-28T01:49:45.739Z,81.20
2018-09-28T01:52:13.767Z,81.30
2018-09-28T01:54:41.803Z,81.40
2018-09-28T01:57:09.975Z,81.30
2018-09-28T01:59:38.003Z,81.40
2018-09-28T02:02:06.088Z,81.00
2018-09-28T02:04:34.293Z,81.40
2018-09-28T02:07:02.319Z,81.20
2018-09-28T02:09:30.497Z,80.50
2018-09-28T02:11:59.821Z,80.20
2018-09-28T02:14:27.890Z,79.90
2018-09-28T02:16:55.959Z,79.50
2018-09-28T02:19:24.119Z,79.40
2018-09-28T02:21:52.150Z,78.80
2018-09-28T02:24:20.155Z,78.50
2018-09-28T02:26:48.214Z,78.50
2018-09-28T02:29:16.385Z,77.90
2018-09-28T02:31:44.381Z,77.50
2018-09-28T02:34:12.567Z,77.30
2018-09-28T02:36:40.626Z,77.40
2018-09-28T02:39:08.910Z,76.70
2018-09-28T02:41:36.953Z,76.80
2018-09-28T02:44:05.013Z,76.70
2018-09-28T02:46:33.224Z,76.90
2018-09-28T02:49:01.624Z,76.90
2018-09-28T02:51:29.798Z,76.60
2018-09-28T02:53:57.887Z,76.50
2018-09-28T02:56:26.741Z,76.70
2018-09-28T02:58:54.803Z,76.50
2018-09-28T03:01:22.796Z,76.40
2018-09-28T03:03:51.049Z,76.00
2018-09-28T03:06:19.162Z,75.60
2018-09-28T03:08:47.150Z,76.00
2018-09-28T03:11:15.661Z,75.30
2018-09-28T03:13:43.684Z,75.00
2018-09-28T03:16:11.715Z,75.10
2018-09-28T03:18:39.746Z,74.60
2018-09-28T03:21:08.005Z,74.90
2018-09-28T03:23:36.054Z,74.30
2018-09-28T03:26:04.592Z,74.20
2018-09-28T03:28:32.782Z,73.90
2018-09-28T03:31:00.785Z,73.80
2018-09-28T03:33:28.974Z,73.70
2018-09-28T03:35:56.987Z,73.60
2018-09-28T03:38:25.080Z,73.50
2018-09-28T03:40:53.337Z,73.50
2018-09-28T03:43:21.355Z,73.30
2018-09-28T03:45:49.397Z,73.40
2018-09-28T03:48:17.777Z,73.40
2018-09-28T03:50:45.816Z,73.90
2018-09-28T03:53:13.809Z,73.30
2018-09-28T03:55:41.983Z,73.00
2018-09-28T03:58:09.999Z,73.00
2018-09-28T04:00:38.023Z,72.90
2018-09-28T04:03:06.501Z,72.90
2018-09-28T04:05:34.472Z,73.10
2018-09-28T04:08:02.518Z,73.30
2018-09-28T04:10:30.667Z,73.30
2018-09-28T04:12:58.743Z,73.70
2018-09-28T04:15:26.803Z,73.70
2018-09-28T04:17:54.974Z,74.00
2018-09-28T04:20:23.042Z,73.80
2018-09-28T04:22:51.092Z,74.10
2018-09-28T04:25:19.238Z,74.30
2018-09-28T04:27:47.259Z,74.40
2018-09-28T04:30:15.438Z,74.70
2018-09-28T04:32:43.662Z,75.00
2018-09-28T04:35:11.680Z,75.20
2018-09-28T04:37:39.725Z,75.30
2018-09-28T04:40:07.791Z,75.40
2018-09-28T04:42:35.949Z,75.60
2018-09-28T04:45:04.001Z,76.00
2018-09-28T04:47:32.142Z,75.70
2018-09-28T04:50:00.580Z,76.00
2018-09-28T04:52:28.626Z,76.10
2018-09-28T04:54:56.711Z,76.00
2018-09-28T04:57:24.830Z,76.10
2018-09-28T04:59:52.884Z,75.70
2018-09-28T05:02:21.446Z,75.50
2018-09-28T05:04:49.505Z,75.00
2018-09-28T05:07:17.503Z,74.30
2018-09-28T05:09:45.660Z,73.80
2018-09-28T05:12:13.711Z,73.40
2018-09-28T05:14:41.736Z,73.70
2018-09-28T05:17:09.882Z,72.70
2018-09-28T05:19:37.929Z,72.40
2018-09-28T05:22:05.960Z,72.30
2018-09-28T05:24:34.031Z,71.90
2018-09-28T05:27:02.055Z,71.70
2018-09-28T05:29:30.078Z,71.50
2018-09-28T05:31:58.770Z,71.50
2018-09-28T05:34:26.767Z,71.30
2018-09-28T05:36:54.777Z,71.20
2018-09-28T05:39:22.839Z,71.20
2018-09-28T05:41:50.890Z,71.20
2018-09-28T05:44:18.963Z,71.00
2018-09-28T05:46:47.288Z,71.20
2018-09-28T05:49:15.312Z,71.40
2018-09-28T05:51:43.498Z,71.40
2018-09-28T05:54:11.755Z,71.60
2018-09-28T05:56:39.810Z,71.70
2018-09-28T05:59:13.430Z,71.70
2018-09-28T06:01:46.986Z,71.60
2018-09-28T06:04:20.891Z,71.90
2018-09-28T06:06:49.047Z,72.60
2018-09-28T06:09:17.264Z,73.80
2018-09-28T06:11:45.379Z,73.50
2018-09-28T06:14:13.451Z,74.00
2018-09-28T06:16:41.525Z,74.00
2018-09-28T06:19:09.598Z,74.00
2018-09-28T06:21:37.620Z,74.10
2018-09-28T06:24:06.089Z,74.00
2018-09-28T06:26:34.108Z,74.00
2018-09-28T06:29:02.192Z,74.00
2018-09-28T06:31:30.220Z,73.80
2018-09-28T06:33:58.311Z,74.00
2018-09-28T06:36:26.337Z,73.50
2018-09-28T06:38:54.442Z,72.90
2018-09-28T06:41:22.939Z,72.40
2018-09-28T06:43:50.975Z,72.00
2018-09-28T06:46:18.978Z,71.60
2018-09-28T06:48:47.036Z,71.40
2018-09-28T06:51:15.278Z,71.20
2018-09-28T06:53:43.762Z,71.00
2018-09-28T06:56:12.009Z,70.40
2018-09-28T06:58:40.003Z,70.70
2018-09-28T07:01:08.066Z,70.30
2018-09-28T07:03:36.158Z,70.00
2018-09-28T07:06:04.285Z,69.20
2018-09-28T07:08:32.327Z,67.70
2018-09-28T07:11:00.403Z,61.30
2018-09-28T07:13:28.463Z,54.30
2018-09-28T07:15:56.498Z,50.20
2018-09-28T07:18:24.826Z,47.80
2018-09-28T07:20:52.784Z,46.70
2018-09-28T07:23:20.851Z,46.00
2018-09-28T07:25:49.342Z,44.60
2018-09-28T07:28:17.459Z,41.50
2018-09-28T07:30:45.560Z,41.10
2018-09-28T07:33:13.675Z,41.90
2018-09-28T07:35:41.756Z,41.10
2018-09-28T07:38:10.787Z,40.00
2018-09-28T07:40:39.207Z,39.40
2018-09-28T07:43:07.266Z,38.00
2018-09-28T07:45:35.294Z,36.00
2018-09-28T07:48:03.400Z,35.40
2018-09-28T07:50:31.483Z,36.20
2018-09-28T07:53:01.313Z,37.90
2018-09-28T07:55:29.564Z,39.30
2018-09-28T07:57:57.703Z,38.20
2018-09-28T08:00:26.861Z,37.20
2018-09-28T08:02:54.938Z,37.40
2018-09-28T08:05:23.017Z,34.60
2018-09-28T08:07:51.356Z,34.70
2018-09-28T08:10:19.539Z,31.20
2018-09-28T08:12:47.584Z,31.10
2018-09-28T08:15:15.922Z,30.20
2018-09-28T08:17:43.979Z,31.20
2018-09-28T08:20:12.002Z,31.30
2018-09-28T08:22:40.937Z,30.90
2018-09-28T08:25:08.970Z,31.60
2018-09-28T08:27:36.998Z,32.20
2018-09-28T08:30:05.575Z,33.90
2018-09-28T08:32:33.695Z,32.80
2018-09-28T08:35:01.716Z,32.00
2018-09-28T08:37:29.993Z,30.20
2018-09-28T08:39:58.023Z,29.90
2018-09-28T08:42:26.095Z,30.40
2018-09-28T08:44:54.480Z,30.30
2018-09-28T08:47:22.494Z,31.00
2018-09-28T08:49:51.318Z,29.50
2018-09-28T08:52:19.341Z,27.50
2018-09-28T08:54:47.365Z,27.80
2018-09-28T08:57:15.643Z,29.50
2018-09-28T08:59:43.922Z,28.90
2018-09-28T09:02:12.026Z,27.50
2018-09-28T09:04:39.969Z,26.80
2018-09-28T09:07:08.441Z,26.40
2018-09-28T09:09:36.531Z,29.00
2018-09-28T09:12:04.578Z,30.30
2018-09-28T09:14:32.915Z,31.40
2018-09-28T09:17:00.934Z,33.00
2018-09-28T09:19:29.210Z,32.50
2018-09-28T09:21:57.314Z,33.10
2018-09-28T09:24:25.494Z,34.60
2018-09-28T09:26:53.565Z,35.00
2018-09-28T09:29:21.650Z,36.00
2018-09-28T09:31:49.647Z,37.00
2018-09-28T09:34:17.665Z,36.50
2018-09-28T09:36:46.115Z,36.70
2018-09-28T09:39:14.167Z,37.00
2018-09-28T09:41:42.370Z,37.40
2018-09-28T09:44:10.550Z,38.90
2018-09-28T09:46:39.010Z,37.80
2018-09-28T09:49:07.087Z,36.90
2018-09-28T09:51:36.383Z,36.80
2018-09-28T09:54:04.454Z,34.90
2018-09-28T09:56:32.499Z,31.90
2018-09-28T09:59:01.011Z,30.60
2018-09-28T10:01:34.432Z,29.60
2018-09-28T10:04:10.051Z,28.50
2018-09-28T10:06:38.114Z,28.50
2018-09-28T10:09:08.989Z,28.90
2018-09-28T10:11:38.563Z,28.20
2018-09-28T10:14:06.610Z,28.90
2018-09-28T10:16:34.911Z,29.00
2018-09-28T10:19:03.091Z,29.70
2018-09-28T10:21:31.279Z,30.10
2018-09-28T10:23:59.455Z,30.20
2018-09-28T10:26:27.607Z,31.60
2018-09-28T10:28:55.681Z,32.30
2018-09-28T10:31:23.859Z,32.90
2018-09-28T10:33:51.870Z,34.80
2018-09-28T10:36:19.906Z,35.50
2018-09-28T10:38:48.174Z,36.60
2018-09-28T10:41:16.243Z,37.50
2018-09-28T10:43:44.255Z,37.80
2018-09-28T10:46:12.324Z,38.20
2018-09-28T10:48:41.154Z,38.80
2018-09-28T10:51:09.233Z,38.90
2018-09-28T10:53:37.822Z,38.20
2018-09-28T10:56:06.072Z,39.00
2018-09-28T10:58:34.095Z,39.60
2018-09-28T11:01:02.511Z,39.10
2018-09-28T11:03:30.539Z,38.50
2018-09-28T11:05:58.639Z,38.50
2018-09-28T11:08:26.740Z,38.20
2018-09-28T11:10:54.699Z,38.30
2018-09-28T11:13:22.746Z,37.60
2018-09-28T11:15:50.861Z,37.80
2018-09-28T11:18:18.835Z,37.90
2018-09-28T11:20:47.019Z,38.50
2018-09-28T11:23:15.667Z,37.60
2018-09-28T11:25:43.771Z,37.00
2018-09-28T11:28:13.529Z,37.40
2018-09-28T11:30:41.523Z,37.80
2018-09-28T11:33:09.556Z,38.20
2018-09-28T11:35:38.132Z,38.00
2018-09-28T11:38:06.146Z,38.90
2018-09-28T11:40:34.184Z,38.30
2018-09-28T11:43:02.412Z,37.20
2018-09-28T11:45:30.468Z,36.70
2018-09-28T11:47:58.759Z,36.10
2018-09-28T11:50:27.464Z,36.20
2018-09-28T11:52:55.873Z,35.80
2018-09-28T11:55:28.443Z,35.40
2018-09-28T11:57:56.475Z,35.20
2018-09-28T12:00:24.495Z,35.00
2018-09-28T12:02:52.544Z,35.20
2018-09-28T12:05:20.720Z,35.40
2018-09-28T12:07:48.732Z,35.70
2018-09-28T12:10:16.882Z,36.20
2018-09-28T12:12:45.059Z,35.00
2018-09-28T12:15:13.226Z,35.40
2018-09-28T12:17:41.384Z,34.80
2018-09-28T12:20:11.389Z,34.70
2018-09-28T12:22:39.754Z,34.90
2018-09-28T12:25:07.828Z,36.00
2018-09-28T12:27:35.944Z,36.40
2018-09-28T12:30:04.431Z,36.60
2018-09-28T12:32:33.114Z,36.80
2018-09-28T12:35:01.139Z,36.20
2018-09-28T12:37:29.325Z,36.20
2018-09-28T12:39:57.385Z,36.90
2018-09-28T12:42:25.678Z,37.20
2018-09-28T12:44:53.691Z,36.90
2018-09-28T12:47:21.743Z,36.90
2018-09-28T12:49:49.763Z,37.90
2018-09-28T12:52:17.786Z,39.30
2018-09-28T12:54:46.034Z,39.70
2018-09-28T12:57:14.047Z,38.80
2018-09-28T12:59:42.209Z,38.60
2018-09-28T13:02:10.434Z,37.70
2018-09-28T13:04:38.419Z,35.70
2018-09-28T13:07:07.410Z,34.80
2018-09-28T13:09:35.451Z,35.30
2018-09-28T13:12:04.155Z,35.40
2018-09-28T13:14:32.248Z,35.10
2018-09-28T13:17:00.299Z,35.30
2018-09-28T13:19:28.339Z,35.70
2018-09-28T13:21:56.567Z,35.30
2018-09-28T13:24:24.655Z,35.60
2018-09-28T13:26:52.619Z,35.30
2018-09-28T13:29:21.987Z,35.30
2018-09-28T13:31:50.367Z,35.30
2018-09-28T13:34:18.370Z,36.00
2018-09-28T13:36:46.860Z,36.40
2018-09-28T13:39:14.844Z,36.90
2018-09-28T13:42:46.698Z,36.20
2018-09-28T13:45:14.840Z,36.00
2018-09-28T13:47:42.754Z,35.80
2018-09-28T13:50:10.922Z,35.70
2018-09-28T13:52:39.142Z,35.50
2018-09-28T13:55:07.487Z,34.80
2018-09-28T13:57:35.712Z,35.20
2018-09-28T14:00:03.774Z,35.60
2018-09-28T14:02:32.207Z,36.60
2018-09-28T14:05:01.259Z,37.20
2018-09-28T14:07:29.322Z,37.30
2018-09-28T14:09:57.482Z,37.10
2018-09-28T14:12:29.733Z,38.00
2018-09-28T14:14:57.790Z,38.20
2018-09-28T14:17:26.423Z,38.20
2018-09-28T14:19:54.712Z,37.40
2018-09-28T14:22:22.820Z,36.60
2018-09-28T14:24:52.653Z,36.60
2018-09-28T14:27:20.954Z,36.70
2018-09-28T14:29:49.139Z,37.10
2018-09-28T14:32:21.825Z,37.20
2018-09-28T14:34:51.345Z,37.10
2018-09-28T14:37:20.967Z,37.80
2018-09-28T14:39:49.099Z,37.10
2018-09-28T14:42:17.297Z,37.40
2018-09-28T14:44:45.769Z,38.40
2018-09-28T14:47:15.050Z,38.00
2018-09-28T14:49:45.177Z,38.40
2018-09-28T14:52:13.235Z,38.10
2018-09-28T14:54:42.112Z,38.90
2018-09-28T14:57:13.470Z,38.40
2018-09-28T14:59:42.772Z,38.40
2018-09-28T15:02:10.908Z,38.00
2018-09-28T15:04:41.009Z,37.60
2018-09-28T15:07:09.132Z,38.00
2018-09-28T15:09:37.182Z,39.10
2018-09-28T15:12:05.375Z,38.70
2018-09-28T15:14:33.678Z,39.30
2018-09-28T15:17:01.714Z,39.30
2018-09-28T15:19:29.787Z,39.30
2018-09-28T15:21:58.054Z,39.20
2018-09-28T15:24:26.106Z,38.40
2018-09-28T15:26:58.705Z,37.60
2018-09-28T15:29:26.880Z,37.40
2018-09-28T15:31:55.244Z,37.80
2018-09-28T15:34:29.136Z,38.40
2018-09-28T15:36:57.543Z,38.90
2018-09-28T15:39:25.573Z,38.90
2018-09-28T15:41:53.594Z,39.20
2018-09-28T15:44:21.852Z,39.40
2018-09-28T15:46:49.958Z,39.70
2018-09-28T15:49:19.775Z,40.00
2018-09-28T15:51:47.860Z,40.70
2018-09-28T15:54:15.987Z,40.90
2018-09-28T15:56:44.276Z,41.00
2018-09-28T15:59:12.480Z,41.30
2018-09-28T16:01:41.001Z,41.70
2018-09-28T16:04:09.214Z,41.60
2018-09-28T16:06:38.129Z,42.50
2018-09-28T16:09:07.504Z,42.40
2018-09-28T16:11:36.416Z,42.40
2018-09-28T16:14:04.855Z,42.90
2018-09-28T16:16:33.239Z,42.80
2018-09-28T16:19:01.319Z,43.00
2018-09-28T16:21:29.343Z,42.80
2018-09-28T16:23:57.386Z,42.50
2018-09-28T16:26:25.419Z,42.40
2018-09-28T16:28:53.566Z,42.90
2018-09-28T16:31:21.678Z,41.20
2018-09-28T16:33:49.946Z,40.80
2018-09-28T16:36:18.087Z,40.70
2018-09-28T16:38:46.182Z,41.10
2018-09-28T16:41:14.222Z,41.40
2018-09-28T16:43:42.310Z,41.40
2018-09-28T16:46:10.527Z,41.60
2018-09-28T16:48:38.552Z,41.60
2018-09-28T16:51:06.697Z,41.70
2018-09-28T16:53:35.335Z,42.20
2018-09-28T16:56:04.111Z,41.90
2018-09-28T16:58:32.196Z,42.20
2018-09-28T17:01:01.435Z,42.30
2018-09-28T17:03:29.599Z,43.30
2018-09-28T17:05:57.881Z,42.90
2018-09-28T17:08:26.683Z,42.80
2018-09-28T17:10:55.113Z,42.90
2018-09-28T17:13:23.130Z,43.20
2018-09-28T17:15:51.146Z,43.40
2018-09-28T17:18:19.436Z,43.60
2018-09-28T17:20:47.545Z,43.60
2018-09-28T17:23:16.571Z,43.20
2018-09-28T17:25:44.778Z,43.70
2018-09-28T17:28:12.906Z,43.80
2018-09-28T17:30:41.271Z,43.90
2018-09-28T17:33:09.327Z,44.10
2018-09-28T17:35:38.210Z,44.30
2018-09-28T17:38:06.361Z,44.30
2018-09-28T17:40:34.407Z,44.30
2018-09-28T17:43:02.495Z,44.50
2018-09-28T17:45:30.972Z,44.70
2018-09-28T17:47:59.011Z,44.90
2018-09-28T17:50:27.324Z,44.90
2018-09-28T17:52:55.341Z,45.30
2018-09-28T17:55:23.412Z,45.30
2018-09-28T17:57:51.503Z,45.50
2018-09-28T18:00:19.687Z,45.80
2018-09-28T18:02:47.675Z,45.90
2018-09-28T18:05:15.735Z,46.00
2018-09-28T18:07:43.813Z,46.10
2018-09-28T18:10:12.095Z,46.40
2018-09-28T18:12:40.196Z,46.20
2018-09-28T18:15:08.211Z,46.60
2018-09-28T18:17:36.220Z,46.60
2018-09-28T18:20:04.410Z,46.80
2018-09-28T18:22:32.502Z,47.20
2018-09-28T18:25:00.515Z,47.10
2018-09-28T18:27:29.011Z,47.20
2018-09-28T18:29:57.095Z,47.50
2018-09-28T18:32:25.458Z,47.60
2018-09-28T18:34:53.538Z,47.90
2018-09-28T18:37:21.958Z,47.80
2018-09-28T18:39:49.938Z,48.10
2018-09-28T18:42:18.367Z,48.40
2018-09-28T18:44:46.326Z,48.50
2018-09-28T18:47:16.774Z,48.60
2018-09-28T18:49:44.843Z,49.00
2018-09-28T18:52:12.847Z,49.00
2018-09-28T18:54:40.964Z,49.30
2018-09-28T18:57:09.078Z,49.40
2018-09-28T18:59:37.123Z,49.70
2018-09-28T19:02:05.198Z,49.80
2018-09-28T19:04:33.294Z,50.10
2018-09-28T19:07:01.394Z,50.40
2018-09-28T19:09:29.877Z,50.40
2018-09-28T19:11:57.888Z,50.60
2018-09-28T19:14:25.904Z,50.90
2018-09-28T19:16:54.039Z,51.10
2018-09-28T19:19:22.091Z,51.30
2018-09-28T19:21:50.146Z,51.40
2018-09-28T19:24:18.239Z,51.30
2018-09-28T19:26:46.336Z,51.40
2018-09-28T19:29:14.358Z,51.50
2018-09-28T19:31:42.643Z,51.50
2018-09-28T19:34:10.704Z,51.60
2018-09-28T19:36:38.844Z,51.80
2018-09-28T19:39:08.318Z,52.00
2018-09-28T19:41:36.482Z,52.10
2018-09-28T19:44:05.091Z,52.40
2018-09-28T19:46:33.113Z,52.60
2018-09-28T19:49:01.187Z,52.70
2018-09-28T19:51:29.308Z,52.90
2018-09-28T19:53:57.750Z,53.20
2018-09-28T19:56:25.854Z,53.30
2018-09-28T19:58:53.899Z,53.50
2018-09-28T20:01:22.052Z,53.60
2018-09-28T20:03:50.088Z,54.60
2018-09-28T20:06:18.175Z,54.10
2018-09-28T20:08:46.192Z,54.40
2018-09-28T20:11:14.230Z,54.50
2018-09-28T20:13:42.259Z,54.70
2018-09-28T20:16:10.596Z,54.90
2018-09-28T20:18:38.668Z,55.00
2018-09-28T20:21:06.853Z,55.20
2018-09-28T20:23:35.536Z,55.40
2018-09-28T20:26:03.551Z,55.60
2018-09-28T20:28:31.717Z,56.00
2018-09-28T20:30:59.831Z,56.20
2018-09-28T20:33:27.903Z,56.30
2018-09-28T20:35:55.913Z,56.60
2018-09-28T20:38:24.174Z,56.90
2018-09-28T20:40:52.418Z,57.00
2018-09-28T20:43:20.507Z,57.10
2018-09-28T20:45:48.630Z,57.40
2018-09-28T20:48:16.647Z,57.50
2018-09-28T20:50:45.832Z,57.60
2018-09-28T20:53:14.039Z,57.80
2018-09-28T20:55:42.118Z,58.00
2018-09-28T20:58:10.090Z,58.00
2018-09-28T21:00:38.233Z,58.40
2018-09-28T21:03:06.396Z,58.30
2018-09-28T21:05:34.406Z,58.40
2018-09-28T21:08:02.856Z,58.80
2018-09-28T21:10:30.919Z,59.00
2018-09-28T21:12:59.021Z,59.30
2018-09-28T21:15:27.251Z,59.30
2018-09-28T21:17:55.299Z,59.60
2018-09-28T21:20:23.443Z,59.70
2018-09-28T21:22:51.518Z,59.60
2018-09-28T21:25:19.543Z,60.10
2018-09-28T21:27:47.632Z,60.60
2018-09-28T21:30:16.136Z,60.70
2018-09-28T21:32:44.188Z,61.70
2018-09-28T21:35:12.227Z,61.60
2018-09-28T21:37:40.303Z,61.60
2018-09-28T21:40:08.597Z,62.10
2018-09-28T21:42:36.887Z,61.50
2018-09-28T21:45:05.254Z,61.60
2018-09-28T21:47:33.369Z,61.20
2018-09-28T21:50:01.455Z,61.80
2018-09-28T21:52:30.087Z,61.70
2018-09-28T21:54:58.218Z,61.70
2018-09-28T21:57:26.251Z,61.70
2018-09-28T21:59:54.668Z,61.90
2018-09-28T22:02:22.727Z,62.00
2018-09-28T22:04:50.797Z,62.30
2018-09-28T22:07:18.824Z,62.30
2018-09-28T22:09:46.863Z,62.90
2018-09-28T22:12:14.902Z,63.20
2018-09-28T22:17:16.587Z,63.70
2018-09-28T22:19:44.613Z,64.00
2018-09-28T22:22:12.645Z,63.90
2018-09-28T22:24:40.668Z,64.00
2018-09-28T22:27:09.236Z,64.20
2018-09-28T22:29:37.861Z,64.50
2018-09-28T22:32:06.201Z,64.30
2018-09-28T22:34:34.461Z,64.40
2018-09-28T22:37:02.526Z,64.60
2018-09-28T22:39:30.599Z,64.90
2018-09-28T22:41:58.623Z,65.20
2018-09-28T22:44:27.839Z,65.10
2018-09-28T22:46:55.927Z,65.40
2018-09-28T22:49:24.062Z,65.30
2018-09-28T22:51:52.131Z,65.60
2018-09-28T22:54:20.197Z,65.60
2018-09-28T22:56:48.218Z,65.80
2018-09-28T22:59:16.382Z,65.90
2018-09-28T23:01:44.495Z,66.10
2018-09-28T23:04:12.522Z,66.70
2018-09-28T23:06:40.547Z,66.30
2018-09-28T23:09:09.307Z,66.80
2018-09-28T23:11:37.677Z,66.90
2018-09-28T23:14:05.740Z,67.00
2018-09-28T23:16:33.924Z,67.20
2018-09-28T23:19:02.390Z,66.70
2018-09-28T23:21:30.589Z,67.10
2018-09-28T23:23:58.759Z,67.30
2018-09-28T23:26:27.222Z,67.60
2018-09-28T23:28:55.231Z,67.60
2018-09-28T23:31:23.778Z,67.50
2018-09-28T23:33:51.790Z,67.50
2018-09-28T23:36:19.798Z,67.60
2018-09-28T23:38:48.767Z,67.30
2018-09-28T23:41:16.900Z,67.40
2018-09-28T23:43:44.915Z,67.50
2018-09-28T23:46:13.309Z,67.50
2018-09-28T23:48:41.455Z,67.50
2018-09-28T23:51:09.492Z,67.60
2018-09-28T23:53:37.522Z,67.60
2018-09-28T23:56:05.533Z,67.50
2018-09-28T23:58:33.617Z,67.30
